createdAt,value
2023-01-20T00:02:15.972Z,69.73
2023-01-20T00:04:42.664Z,69.71
2023-01-20T00:07:09.232Z,69.60
2023-01-20T00:09:36.009Z,69.52
2023-01-20T00:12:02.833Z,69.74
2023-01-20T00:14:29.418Z,69.61
2023-01-20T00:16:56.858Z,69.70
2023-01-20T00:19:23.558Z,69.74
2023-01-20T00:21:50.218Z,69.55
2023-01-20T00:24:16.931Z,69.64
2023-01-20T00:26:43.528Z,69.92
2023-01-20T00:29:10.217Z,69.81
2023-01-20T00:31:37.021Z,69.90
2023-01-20T00:34:04.717Z,69.91
2023-01-20T00:36:32.652Z,69.94
2023-01-20T00:39:02.099Z,69.90
2023-01-20T00:41:29.063Z,69.80
2023-01-20T00:43:55.657Z,70.14
2023-01-20T00:46:24.955Z,70.02
2023-01-20T00:48:51.707Z,70.03
2023-01-20T00:51:18.450Z,70.00
2023-01-20T00:53:45.076Z,70.13
2023-01-20T00:56:11.817Z,70.19
2023-01-20T00:58:38.617Z,70.27
2023-01-20T01:01:05.303Z,70.15
2023-01-20T01:03:31.921Z,70.14
2023-01-20T01:06:14.239Z,70.28
2023-01-20T01:08:42.305Z,70.29
2023-01-20T01:11:10.186Z,70.13
2023-01-20T01:13:38.008Z,70.26
2023-01-20T01:16:09.815Z,70.30
2023-01-20T01:18:36.416Z,70.31
2023-01-20T01:21:12.509Z,70.44
2023-01-20T01:23:39.192Z,70.32
2023-01-20T01:26:05.795Z,70.39
2023-01-20T01:28:32.413Z,70.56
2023-01-20T01:31:01.169Z,70.67
2023-01-20T01:33:28.655Z,70.65
2023-01-20T01:35:57.022Z,70.72
2023-01-20T01:38:24.764Z,70.77
2023-01-20T01:40:53.184Z,70.72
2023-01-20T01:43:25.814Z,70.80
2023-01-20T01:45:52.905Z,70.79
2023-01-20T01:48:25.820Z,70.70
2023-01-20T01:51:18.380Z,70.75
2023-01-20T01:53:53.301Z,70.65
2023-01-20T01:56:26.815Z,70.75
2023-01-20T01:58:55.529Z,70.73
2023-01-20T02:01:22.593Z,70.65
2023-01-20T02:04:12.016Z,70.63
2023-01-20T02:06:45.845Z,70.80
2023-01-20T02:09:13.684Z,70.63
2023-01-20T02:12:01.952Z,70.62
2023-01-20T02:14:36.848Z,70.88
2023-01-20T02:17:17.060Z,70.66
2023-01-20T02:20:12.122Z,70.72
2023-01-20T02:23:00.910Z,70.63
2023-01-20T02:25:33.260Z,70.59
2023-01-20T02:28:02.858Z,70.64
2023-01-20T02:30:47.867Z,70.51
2023-01-20T02:33:29.700Z,70.50
2023-01-20T02:36:04.820Z,70.57
2023-01-20T02:39:26.950Z,70.59
2023-01-20T02:42:10.927Z,70.50
2023-01-20T02:44:51.481Z,70.56
2023-01-20T02:47:26.057Z,70.49
2023-01-20T02:49:54.747Z,70.59
2023-01-20T02:52:25.687Z,70.55
2023-01-20T02:54:56.682Z,70.48
2023-01-20T02:57:31.424Z,70.61
2023-01-20T03:00:03.993Z,70.51
2023-01-20T03:02:34.521Z,70.55
2023-01-20T03:05:06.891Z,70.58
2023-01-20T03:07:38.105Z,70.60
2023-01-20T03:10:09.322Z,70.79
2023-01-20T03:12:44.991Z,70.70
2023-01-20T03:15:12.866Z,70.59
2023-01-20T03:17:39.995Z,70.62
2023-01-20T03:20:07.788Z,70.71
2023-01-20T03:22:34.448Z,70.75
2023-01-20T03:25:02.611Z,70.77
2023-01-20T03:27:29.249Z,70.67
2023-01-20T03:29:55.906Z,70.66
2023-01-20T03:32:26.157Z,70.81
2023-01-20T03:34:57.207Z,70.68
2023-01-20T03:37:23.892Z,70.76
2023-01-20T03:39:51.436Z,70.74
2023-01-20T03:42:17.972Z,70.76
2023-01-20T03:45:09.416Z,70.80
2023-01-20T03:47:58.604Z,70.82
2023-01-20T03:50:44.134Z,70.78
2023-01-20T03:53:36.742Z,70.87
2023-01-20T03:56:06.235Z,70.96
2023-01-20T03:58:36.995Z,70.93
2023-01-20T04:01:15.594Z,71.01
2023-01-20T04:03:48.230Z,70.97
2023-01-20T04:06:17.361Z,70.93
2023-01-20T04:08:49.622Z,70.93
2023-01-20T04:11:16.582Z,71.04
2023-01-20T04:13:43.220Z,71.07
2023-01-20T04:16:15.145Z,71.08
2023-01-20T04:18:45.181Z,71.07
2023-01-20T04:21:22.063Z,70.99
2023-01-20T04:23:59.987Z,71.09
2023-01-20T04:26:26.524Z,71.02
2023-01-20T04:28:53.107Z,70.89
2023-01-20T04:31:30.174Z,71.08
2023-01-20T04:33:57.818Z,71.00
2023-01-20T04:36:24.358Z,70.98
2023-01-20T04:38:50.930Z,71.04
2023-01-20T04:41:17.549Z,70.99
2023-01-20T04:43:45.320Z,71.04
2023-01-20T04:46:13.778Z,71.02
2023-01-20T04:48:40.480Z,71.09
2023-01-20T04:51:07.736Z,71.12
2023-01-20T04:53:34.894Z,71.09
2023-01-20T04:56:01.398Z,71.20
2023-01-20T04:58:27.929Z,71.01
2023-01-20T05:00:54.446Z,71.15
2023-01-20T05:03:20.956Z,70.89
2023-01-20T05:05:54.421Z,71.04
2023-01-20T05:08:21.659Z,71.06
2023-01-20T05:10:48.529Z,71.05
2023-01-20T05:13:15.303Z,71.06
2023-01-20T05:15:43.365Z,71.03
2023-01-20T05:18:09.997Z,71.09
2023-01-20T05:20:36.553Z,71.13
2023-01-20T05:23:03.168Z,71.09
2023-01-20T05:25:29.820Z,71.14
2023-01-20T05:27:58.533Z,71.11
2023-01-20T05:30:25.121Z,71.20
2023-01-20T05:32:51.767Z,71.12
2023-01-20T05:35:18.549Z,71.20
2023-01-20T05:37:45.143Z,71.24
2023-01-20T05:40:12.261Z,71.23
2023-01-20T05:42:39.401Z,71.28
2023-01-20T05:45:06.648Z,71.45
2023-01-20T05:47:33.220Z,71.33
2023-01-20T05:49:59.821Z,71.59
2023-01-20T05:52:26.456Z,71.74
2023-01-20T05:54:53.003Z,71.77
2023-01-20T05:57:19.613Z,71.68
2023-01-20T05:59:50.781Z,71.81
2023-01-20T06:02:20.566Z,71.86
2023-01-20T06:04:48.021Z,71.77
2023-01-20T06:07:14.757Z,71.86
2023-01-20T06:09:41.341Z,71.69
2023-01-20T06:12:07.962Z,71.61
2023-01-20T06:14:34.593Z,71.80
2023-01-20T06:17:01.244Z,71.77
2023-01-20T06:19:27.819Z,71.74
2023-01-20T06:21:54.471Z,71.81
2023-01-20T06:24:20.983Z,71.92
2023-01-20T06:26:50.660Z,71.90
2023-01-20T06:29:17.251Z,71.89
2023-01-20T06:31:44.820Z,71.88
2023-01-20T06:34:11.918Z,71.88
2023-01-20T06:36:39.132Z,71.80
2023-01-20T06:39:05.914Z,71.88
2023-01-20T06:41:32.868Z,71.92
2023-01-20T06:43:59.508Z,72.10
2023-01-20T06:46:26.052Z,72.04
2023-01-20T06:48:59.464Z,72.02
2023-01-20T06:51:28.131Z,71.93
2023-01-20T06:53:55.506Z,72.15
2023-01-20T06:56:22.494Z,72.10
2023-01-20T06:58:49.090Z,72.11
2023-01-20T07:01:23.106Z,72.09
2023-01-20T07:03:50.017Z,72.10
2023-01-20T07:06:24.241Z,72.09
2023-01-20T07:08:50.950Z,72.03
2023-01-20T07:11:17.768Z,71.94
2023-01-20T07:13:44.712Z,72.01
2023-01-20T07:16:14.432Z,72.01
2023-01-20T07:18:43.294Z,72.09
2023-01-20T07:21:11.035Z,72.07
2023-01-20T07:23:37.638Z,72.13
2023-01-20T07:26:10.108Z,72.14
2023-01-20T07:28:37.134Z,72.23
2023-01-20T07:31:09.414Z,72.35
2023-01-20T07:33:36.365Z,72.30
2023-01-20T07:36:03.918Z,72.26
2023-01-20T07:38:30.652Z,72.35
2023-01-20T07:40:58.889Z,72.37
2023-01-20T07:43:26.362Z,72.38
2023-01-20T07:45:58.055Z,72.41
2023-01-20T07:48:25.507Z,72.61
2023-01-20T07:51:01.364Z,72.58
2023-01-20T07:53:29.165Z,72.65
2023-01-20T07:55:55.974Z,72.66
2023-01-20T07:58:22.637Z,72.64
2023-01-20T08:00:49.237Z,72.77
2023-01-20T08:03:15.844Z,72.86
2023-01-20T08:05:42.433Z,72.86
2023-01-20T08:08:08.920Z,72.83
2023-01-20T08:10:36.582Z,72.79
2023-01-20T08:13:03.243Z,72.93
2023-01-20T08:15:29.774Z,72.80
2023-01-20T08:17:57.865Z,72.90
2023-01-20T08:20:24.803Z,72.99
2023-01-20T08:22:51.465Z,73.26
2023-01-20T08:25:18.008Z,73.30
2023-01-20T08:27:47.445Z,73.42
2023-01-20T08:30:14.265Z,74.78
2023-01-20T08:32:40.952Z,73.83
2023-01-20T08:35:07.850Z,73.78
2023-01-20T08:37:36.450Z,73.36
2023-01-20T08:40:08.408Z,73.07
2023-01-20T08:42:36.720Z,72.91
2023-01-20T08:45:05.952Z,73.00
2023-01-20T08:47:45.294Z,72.97
2023-01-20T08:50:13.788Z,72.77
2023-01-20T08:52:41.722Z,72.76
2023-01-20T08:55:09.864Z,72.62
2023-01-20T08:57:36.857Z,72.53
2023-01-20T09:00:05.710Z,72.41
2023-01-20T09:02:32.287Z,72.53
2023-01-20T09:04:59.181Z,72.62
2023-01-20T09:07:26.439Z,72.49
2023-01-20T09:09:52.987Z,72.35
2023-01-20T09:12:20.242Z,72.12
2023-01-20T09:14:46.845Z,72.12
2023-01-20T09:17:14.339Z,72.12
2023-01-20T09:19:40.960Z,72.06
2023-01-20T09:22:07.626Z,71.61
2023-01-20T09:24:34.123Z,71.70
2023-01-20T09:27:00.647Z,71.78
2023-01-20T09:29:27.425Z,71.76
2023-01-20T09:31:58.789Z,71.64
2023-01-20T09:34:28.751Z,71.44
2023-01-20T09:37:18.337Z,71.09
2023-01-20T09:40:04.581Z,70.73
2023-01-20T09:43:21.377Z,70.50
2023-01-20T09:45:57.216Z,70.69
2023-01-20T09:48:56.098Z,70.64
2023-01-20T09:52:20.757Z,70.30
2023-01-20T09:54:53.158Z,70.09
2023-01-20T09:57:24.183Z,69.77
2023-01-20T09:59:59.366Z,69.48
2023-01-20T10:02:31.592Z,69.67
2023-01-20T10:05:06.934Z,69.51
2023-01-20T10:07:45.525Z,69.30
2023-01-20T10:10:24.030Z,69.24
2023-01-20T10:13:04.305Z,69.17
2023-01-20T10:15:44.473Z,69.31
2023-01-20T10:18:29.498Z,69.61
2023-01-20T10:21:07.714Z,69.71
2023-01-20T10:24:02.941Z,69.71
2023-01-20T10:26:38.023Z,69.78
2023-01-20T10:29:09.452Z,69.69
2023-01-20T10:31:58.006Z,69.92
2023-01-20T10:34:53.112Z,70.06
2023-01-20T10:37:22.410Z,69.95
2023-01-20T10:40:06.655Z,70.07
2023-01-20T10:42:33.659Z,69.94
2023-01-20T10:45:00.447Z,70.01
2023-01-20T10:47:42.220Z,69.87
2023-01-20T10:50:27.697Z,69.86
2023-01-20T10:53:13.556Z,70.08
2023-01-20T10:55:52.829Z,70.15
2023-01-20T10:58:25.481Z,70.23
2023-01-20T11:00:52.170Z,70.18
2023-01-20T11:03:21.859Z,70.10
2023-01-20T11:05:51.040Z,69.94
2023-01-20T11:08:23.476Z,69.86
2023-01-20T11:11:12.513Z,69.80
2023-01-20T11:13:39.098Z,69.84
2023-01-20T11:16:19.919Z,69.77
2023-01-20T11:19:05.349Z,69.76
2023-01-20T11:21:36.018Z,69.92
2023-01-20T11:24:25.317Z,69.62
2023-01-20T11:26:52.009Z,69.25
2023-01-20T11:29:18.500Z,69.04
2023-01-20T11:31:47.376Z,68.81
2023-01-20T11:34:21.799Z,68.82
2023-01-20T11:36:50.384Z,69.05
2023-01-20T11:39:30.136Z,69.09
2023-01-20T11:42:16.869Z,68.94
2023-01-20T11:44:43.354Z,69.30
2023-01-20T11:47:36.860Z,69.24
2023-01-20T11:50:03.347Z,69.26
2023-01-20T11:52:46.388Z,69.21
2023-01-20T11:55:25.430Z,69.21
2023-01-20T11:58:03.038Z,68.88
2023-01-20T12:00:42.694Z,68.88
2023-01-20T12:03:12.415Z,69.16
2023-01-20T12:05:44.003Z,69.09
2023-01-20T12:08:17.948Z,68.65
2023-01-20T12:10:45.565Z,68.70
2023-01-20T12:13:28.479Z,68.69
2023-01-20T12:16:00.670Z,68.76
2023-01-20T12:19:01.700Z,68.97
2023-01-20T12:21:36.679Z,68.96
2023-01-20T12:24:06.172Z,68.69
2023-01-20T12:26:34.863Z,68.82
2023-01-20T12:29:13.323Z,68.77
2023-01-20T12:31:40.083Z,68.64
2023-01-20T12:34:27.970Z,68.67
2023-01-20T12:37:13.024Z,68.71
2023-01-20T12:40:07.785Z,68.98
2023-01-20T12:43:02.627Z,69.20
2023-01-20T12:45:52.579Z,69.22
2023-01-20T12:48:53.632Z,69.28
2023-01-20T12:51:26.333Z,69.48
2023-01-20T12:54:13.550Z,69.32
2023-01-20T12:56:58.831Z,69.27
2023-01-20T13:00:00.633Z,69.26
2023-01-20T13:03:21.505Z,69.52
2023-01-20T13:06:29.420Z,69.78
2023-01-20T13:09:33.968Z,70.00
2023-01-20T13:12:09.163Z,70.28
2023-01-20T13:14:42.529Z,70.36
2023-01-20T13:17:23.591Z,70.52
2023-01-20T13:19:54.117Z,70.77
2023-01-20T13:22:23.126Z,71.02
2023-01-20T13:24:52.197Z,71.11
2023-01-20T13:27:28.553Z,71.15
2023-01-20T13:29:57.904Z,71.32
2023-01-20T13:32:36.992Z,71.30
2023-01-20T13:35:26.876Z,71.47
2023-01-20T13:37:59.288Z,71.39
2023-01-20T13:40:37.895Z,71.54
2023-01-20T13:43:19.735Z,71.60
2023-01-20T13:45:46.327Z,71.64
2023-01-20T13:48:12.945Z,71.74
2023-01-20T13:50:41.890Z,71.74
2023-01-20T13:53:14.386Z,72.01
2023-01-20T13:55:41.079Z,72.12
2023-01-20T13:58:18.703Z,72.14
2023-01-20T14:00:49.020Z,72.25
2023-01-20T14:03:18.560Z,72.44
2023-01-20T14:06:03.626Z,72.48
2023-01-20T14:08:37.692Z,72.42
2023-01-20T14:11:16.911Z,72.60
2023-01-20T14:14:04.873Z,72.67
2023-01-20T14:16:34.627Z,72.86
2023-01-20T14:19:17.907Z,73.07
2023-01-20T14:21:44.574Z,72.99
2023-01-20T14:24:47.936Z,73.13
2023-01-20T14:27:23.216Z,73.22
2023-01-20T14:29:52.165Z,73.32
2023-01-20T14:32:25.620Z,73.41
2023-01-20T14:34:52.683Z,73.45
2023-01-20T14:37:37.270Z,73.54
2023-01-20T14:40:39.720Z,73.69
2023-01-20T14:43:21.839Z,73.72
2023-01-20T14:45:53.574Z,73.82
2023-01-20T14:48:33.430Z,73.79
2023-01-20T14:51:03.421Z,73.95
2023-01-20T14:53:30.053Z,73.91
2023-01-20T14:56:02.007Z,73.97
2023-01-20T14:58:31.960Z,73.99
2023-01-20T15:01:04.768Z,74.10
2023-01-20T15:03:32.155Z,74.31
2023-01-20T15:06:01.081Z,74.27
2023-01-20T15:08:33.816Z,74.44
2023-01-20T15:11:15.899Z,74.59
2023-01-20T15:14:07.609Z,74.59
2023-01-20T15:16:45.848Z,74.75
2023-01-20T15:19:19.407Z,74.81
2023-01-20T15:21:46.056Z,75.07
2023-01-20T15:24:30.242Z,75.11
2023-01-20T15:27:00.007Z,75.18
2023-01-20T15:30:08.081Z,75.28
2023-01-20T15:32:34.650Z,75.17
2023-01-20T15:35:01.193Z,75.45
2023-01-20T15:37:27.921Z,75.49
2023-01-20T15:39:54.540Z,75.66
2023-01-20T15:42:23.197Z,75.79
2023-01-20T15:44:49.831Z,75.78
2023-01-20T15:47:30.146Z,75.91
2023-01-20T15:49:57.546Z,75.88
2023-01-20T15:52:24.190Z,76.00
2023-01-20T15:54:50.797Z,75.94
2023-01-20T15:57:18.216Z,76.05
2023-01-20T15:59:45.469Z,76.23
2023-01-20T16:02:20.708Z,76.39
2023-01-20T16:04:47.919Z,76.45
2023-01-20T16:07:17.294Z,76.63
2023-01-20T16:09:44.191Z,76.50
2023-01-20T16:12:16.453Z,76.50
2023-01-20T16:14:43.944Z,76.57
2023-01-20T16:17:13.749Z,76.73
2023-01-20T16:19:40.755Z,76.92
2023-01-20T16:22:08.139Z,76.95
2023-01-20T16:24:34.693Z,76.99
2023-01-20T16:27:03.771Z,77.16
2023-01-20T16:29:31.221Z,77.11
2023-01-20T16:31:57.998Z,77.32
2023-01-20T16:34:24.601Z,77.50
2023-01-20T16:36:51.152Z,77.34
2023-01-20T16:39:17.967Z,77.47
2023-01-20T16:41:48.226Z,77.37
2023-01-20T16:44:15.566Z,77.33
2023-01-20T16:46:46.436Z,77.47
2023-01-20T16:49:13.645Z,77.44
2023-01-20T16:51:40.648Z,77.65
2023-01-20T16:54:09.009Z,77.74
2023-01-20T16:56:35.809Z,77.84
2023-01-20T16:59:02.823Z,78.03
2023-01-20T17:01:29.953Z,78.00
2023-01-20T17:03:59.348Z,78.28
2023-01-20T17:06:28.999Z,78.32
2023-01-20T17:08:58.223Z,78.36
2023-01-20T17:11:28.092Z,78.32
2023-01-20T17:13:55.223Z,78.32
2023-01-20T17:16:25.313Z,78.49
2023-01-20T17:18:54.563Z,78.44
2023-01-20T17:21:22.500Z,78.36
2023-01-20T17:24:00.558Z,78.51
2023-01-20T17:26:27.267Z,78.42
2023-01-20T17:28:58.452Z,78.65
2023-01-20T17:31:25.292Z,78.38
2023-01-20T17:33:51.994Z,78.69
2023-01-20T17:36:19.669Z,78.48
2023-01-20T17:38:46.524Z,78.52
2023-01-20T17:41:14.058Z,78.71
2023-01-20T17:43:45.812Z,78.86
2023-01-20T17:46:21.726Z,79.10
2023-01-20T17:48:49.027Z,78.93
2023-01-20T17:51:21.640Z,78.97
2023-01-20T17:53:48.872Z,79.07
2023-01-20T17:56:16.895Z,79.27
2023-01-20T17:58:44.826Z,79.16
2023-01-20T18:01:20.572Z,79.15
2023-01-20T18:03:49.760Z,79.14
2023-01-20T18:06:18.656Z,79.31
2023-01-20T18:08:51.183Z,79.35
2023-01-20T18:11:19.626Z,79.43
2023-01-20T18:13:47.204Z,79.40
2023-01-20T18:16:16.608Z,79.25
2023-01-20T18:18:44.814Z,79.44
2023-01-20T18:21:18.308Z,79.55
2023-01-20T18:23:46.255Z,79.62
2023-01-20T18:26:15.680Z,79.61
2023-01-20T18:28:42.907Z,79.65
2023-01-20T18:31:13.142Z,79.70
2023-01-20T18:33:44.265Z,79.64
2023-01-20T18:36:14.852Z,79.78
2023-01-20T18:38:45.101Z,79.91
2023-01-20T18:41:13.601Z,79.90
2023-01-20T18:43:40.755Z,80.03
2023-01-20T18:46:09.040Z,80.07
2023-01-20T18:48:46.612Z,80.14
2023-01-20T18:51:15.806Z,80.17
2023-01-20T18:53:44.499Z,80.31
2023-01-20T18:56:14.064Z,80.34
2023-01-20T18:58:46.293Z,80.44
2023-01-20T19:01:18.871Z,80.50
2023-01-20T19:03:46.943Z,80.43
2023-01-20T19:06:22.484Z,80.67
2023-01-20T19:08:50.194Z,80.74
2023-01-20T19:11:20.144Z,80.70
2023-01-20T19:13:49.272Z,80.78
2023-01-20T19:16:22.175Z,80.92
2023-01-20T19:18:54.266Z,81.07
2023-01-20T19:21:21.845Z,81.21
2023-01-20T19:23:53.931Z,81.14
2023-01-20T19:26:21.940Z,81.10
2023-01-20T19:28:55.765Z,81.00
2023-01-20T19:31:22.527Z,81.25
2023-01-20T19:33:49.404Z,81.27
2023-01-20T19:36:17.714Z,81.24
2023-01-20T19:38:44.520Z,81.34
2023-01-20T19:41:17.213Z,81.55
2023-01-20T19:43:44.823Z,81.53
2023-01-20T19:46:14.345Z,81.57
2023-01-20T19:48:41.681Z,81.84
2023-01-20T19:51:11.000Z,81.76
2023-01-20T19:53:38.574Z,81.95
2023-01-20T19:56:06.922Z,81.75
2023-01-20T19:58:33.898Z,81.88
2023-01-20T20:01:13.756Z,81.97
2023-01-20T20:03:40.848Z,82.11
2023-01-20T20:06:22.502Z,82.00
2023-01-20T20:08:49.720Z,81.96
2023-01-20T20:11:16.746Z,81.98
2023-01-20T20:13:43.665Z,82.04
2023-01-20T20:16:10.426Z,82.02
2023-01-20T20:18:37.129Z,81.70
2023-01-20T20:21:05.222Z,81.86
2023-01-20T20:23:31.860Z,81.87
2023-01-20T20:25:58.491Z,81.79
2023-01-20T20:28:26.947Z,81.76
2023-01-20T20:30:56.471Z,81.74
2023-01-20T20:33:23.838Z,81.87
2023-01-20T20:35:50.622Z,81.93
2023-01-20T20:38:17.277Z,81.73
2023-01-20T20:40:44.078Z,81.88
2023-01-20T20:43:10.585Z,82.03
2023-01-20T20:45:37.118Z,81.98
2023-01-20T20:48:04.276Z,81.60
2023-01-20T20:50:31.170Z,81.55
2023-01-20T20:52:58.455Z,81.81
2023-01-20T20:55:25.547Z,81.83
2023-01-20T20:57:52.128Z,81.72
2023-01-20T21:00:22.713Z,81.70
2023-01-20T21:02:49.514Z,81.67
2023-01-20T21:05:18.185Z,81.85
2023-01-20T21:07:44.827Z,81.72
2023-01-20T21:10:13.250Z,81.64
2023-01-20T21:12:40.347Z,81.62
2023-01-20T21:15:08.098Z,81.57
2023-01-20T21:17:34.784Z,81.72
2023-01-20T21:20:01.486Z,81.72
2023-01-20T21:22:28.084Z,81.77
2023-01-20T21:24:54.674Z,81.67
2023-01-20T21:27:21.253Z,81.62
2023-01-20T21:29:47.790Z,81.47
2023-01-20T21:32:15.159Z,81.60
2023-01-20T21:34:41.734Z,81.70
2023-01-20T21:37:08.375Z,81.70
2023-01-20T21:39:34.935Z,81.88
2023-01-20T21:42:01.503Z,81.87
2023-01-20T21:44:28.041Z,82.00
2023-01-20T21:47:00.525Z,82.08
2023-01-20T21:49:45.979Z,81.91
2023-01-20T21:52:34.023Z,82.01
2023-01-20T21:55:01.385Z,81.90
2023-01-20T21:57:28.603Z,81.92
2023-01-20T21:59:55.744Z,81.89
2023-01-20T22:02:22.628Z,82.06
2023-01-20T22:04:50.280Z,81.99
2023-01-20T22:07:17.190Z,82.07
2023-01-20T22:09:43.760Z,82.10
2023-01-20T22:12:11.110Z,82.02
2023-01-20T22:14:38.643Z,82.05
2023-01-20T22:17:06.812Z,81.94
2023-01-20T22:19:33.617Z,82.02
2023-01-20T22:22:01.001Z,82.27
2023-01-20T22:24:28.536Z,82.10
2023-01-20T22:26:55.790Z,82.00
2023-01-20T22:29:22.629Z,82.18
2023-01-20T22:31:54.976Z,82.33
2023-01-20T22:34:21.958Z,82.32
2023-01-20T22:36:48.692Z,82.39
2023-01-20T22:39:15.391Z,82.28
2023-01-20T22:41:42.303Z,82.29
2023-01-20T22:44:09.020Z,82.52
2023-01-20T22:46:35.570Z,82.31
2023-01-20T22:49:02.529Z,82.16
2023-01-20T22:51:30.061Z,82.32
2023-01-20T22:53:58.947Z,82.42
2023-01-20T22:56:31.028Z,82.25
2023-01-20T22:58:58.847Z,82.35
2023-01-20T23:01:29.577Z,82.42
2023-01-20T23:03:58.843Z,82.31
2023-01-20T23:06:27.280Z,82.44
2023-01-20T23:08:53.860Z,82.28
2023-01-20T23:11:22.316Z,82.32
2023-01-20T23:13:49.380Z,82.63
2023-01-20T23:16:21.447Z,82.63
2023-01-20T23:18:49.823Z,82.70
2023-01-20T23:21:16.567Z,82.58
2023-01-20T23:23:43.284Z,82.66
2023-01-20T23:26:14.583Z,82.86
2023-01-20T23:28:42.989Z,83.06
2023-01-20T23:31:11.642Z,83.01
2023-01-20T23:33:40.099Z,83.18
2023-01-20T23:36:13.913Z,82.94
2023-01-20T23:38:41.260Z,82.74
2023-01-20T23:41:08.132Z,82.80
2023-01-20T23:43:34.822Z,82.92
2023-01-20T23:46:04.168Z,83.01
2023-01-20T23:48:31.493Z,83.03
2023-01-20T23:50:59.322Z,83.13
2023-01-20T23:53:27.912Z,83.34
2023-01-20T23:56:15.960Z,83.44
2023-01-20T23:58:43.508Z,83.60
